sensor_id;sensor_type;location;lat;lon;timestamp;pressure;altitude;pressure_sealevel;temperature;humidity
73860;BME280;62197;51.632;13.700;2023-03-05T00:00:12;100192.66;;;2.48;89.80
73860;BME280;62197;51.632;13.700;2023-03-05T00:02:37;100181.28;;;2.38;89.43
73860;BME280;62197;51.632;13.700;2023-03-05T00:05:03;100186.97;;;2.43;89.63
73860;BME280;62197;51.632;13.700;2023-03-05T00:07:28;100188.41;;;2.39;89.47
73860;BME280;62197;51.632;13.700;2023-03-05T00:09:54;100193.19;;;2.37;89.37
73860;BME280;62197;51.632;13.700;2023-03-05T00:12:19;100182.06;;;2.32;89.36
73860;BME280;62197;51.632;13.700;2023-03-05T00:14:44;100178.75;;;2.36;89.84
73860;BME280;62197;51.632;13.700;2023-03-05T00:17:10;100169.88;;;2.28;90.11
73860;BME280;62197;51.632;13.700;2023-03-05T00:19:35;100163.06;;;2.17;89.57
73860;BME280;62197;51.632;13.700;2023-03-05T00:22:00;100172.59;;;2.28;88.51
73860;BME280;62197;51.632;13.700;2023-03-05T00:24:26;100166.31;;;2.27;88.47
73860;BME280;62197;51.632;13.700;2023-03-05T00:26:51;100157.28;;;2.27;88.28
73860;BME280;62197;51.632;13.700;2023-03-05T00:29:18;100155.34;;;2.21;88.44
73860;BME280;62197;51.632;13.700;2023-03-05T00:31:46;100169.91;;;2.34;87.40
73860;BME280;62197;51.632;13.700;2023-03-05T00:34:14;100166.19;;;2.35;87.82
73860;BME280;62197;51.632;13.700;2023-03-05T00:36:47;100165.63;;;2.19;88.09
73860;BME280;62197;51.632;13.700;2023-03-05T00:39:13;100162.25;;;2.17;88.19
73860;BME280;62197;51.632;13.700;2023-03-05T00:41:39;100161.06;;;2.26;87.92
73860;BME280;62197;51.632;13.700;2023-03-05T00:44:04;100149.66;;;2.16;86.97
73860;BME280;62197;51.632;13.700;2023-03-05T00:46:30;100147.59;;;2.18;87.25
73860;BME280;62197;51.632;13.700;2023-03-05T00:48:56;100153.09;;;2.24;86.68
73860;BME280;62197;51.632;13.700;2023-03-05T00:51:22;100140.84;;;2.14;87.39
73860;BME280;62197;51.632;13.700;2023-03-05T00:53:48;100139.19;;;2.13;86.19
73860;BME280;62197;51.632;13.700;2023-03-05T00:56:14;100130.38;;;2.11;86.26
73860;BME280;62197;51.632;13.700;2023-03-05T00:58:39;100136.69;;;2.18;86.03
73860;BME280;62197;51.632;13.700;2023-03-05T01:01:05;100133.66;;;2.06;86.66
73860;BME280;62197;51.632;13.700;2023-03-05T01:03:32;100132.59;;;2.07;86.04
73860;BME280;62197;51.632;13.700;2023-03-05T01:05:58;100125.69;;;2.05;86.33
73860;BME280;62197;51.632;13.700;2023-03-05T01:08:24;100124.59;;;1.99;86.59
73860;BME280;62197;51.632;13.700;2023-03-05T01:10:50;100120.59;;;1.95;86.02
73860;BME280;62197;51.632;13.700;2023-03-05T01:13:16;100116.88;;;2.03;85.61
73860;BME280;62197;51.632;13.700;2023-03-05T01:15:41;100113.09;;;2.04;85.22
73860;BME280;62197;51.632;13.700;2023-03-05T01:18:06;100109.69;;;1.95;85.01
73860;BME280;62197;51.632;13.700;2023-03-05T01:20:32;100119.09;;;1.93;85.20
73860;BME280;62197;51.632;13.700;2023-03-05T01:22:58;100117.59;;;1.90;85.31
73860;BME280;62197;51.632;13.700;2023-03-05T01:25:24;100113.75;;;1.84;85.15
73860;BME280;62197;51.632;13.700;2023-03-05T01:27:49;100103.50;;;1.80;85.64
73860;BME280;62197;51.632;13.700;2023-03-05T01:30:14;100099.50;;;1.82;85.25
73860;BME280;62197;51.632;13.700;2023-03-05T01:32:40;100090.72;;;1.80;84.98
73860;BME280;62197;51.632;13.700;2023-03-05T01:35:05;100092.94;;;1.92;85.14
73860;BME280;62197;51.632;13.700;2023-03-05T01:37:31;100091.09;;;1.77;85.06
73860;BME280;62197;51.632;13.700;2023-03-05T01:39:56;100083.84;;;1.84;83.67
73860;BME280;62197;51.632;13.700;2023-03-05T01:42:21;100083.59;;;1.79;83.82
73860;BME280;62197;51.632;13.700;2023-03-05T01:45:10;100091.34;;;1.82;83.62
73860;BME280;62197;51.632;13.700;2023-03-05T01:47:36;100096.78;;;1.82;83.26
73860;BME280;62197;51.632;13.700;2023-03-05T01:50:04;100096.53;;;1.77;84.41
73860;BME280;62197;51.632;13.700;2023-03-05T01:52:30;100078.84;;;1.67;83.88
73860;BME280;62197;51.632;13.700;2023-03-05T01:55:00;100096.53;;;1.77;84.56
73860;BME280;62197;51.632;13.700;2023-03-05T01:57:34;100082.22;;;1.69;83.93
73860;BME280;62197;51.632;13.700;2023-03-05T02:00:11;100078.28;;;1.71;83.18
73860;BME280;62197;51.632;13.700;2023-03-05T02:02:37;100068.41;;;1.70;82.67
73860;BME280;62197;51.632;13.700;2023-03-05T02:05:06;100074.72;;;1.71;82.57
73860;BME280;62197;51.632;13.700;2023-03-05T02:07:34;100072.19;;;1.69;82.47
73860;BME280;62197;51.632;13.700;2023-03-05T02:10:14;100064.16;;;1.61;82.52
73860;BME280;62197;51.632;13.700;2023-03-05T02:12:40;100062.50;;;1.60;82.61
73860;BME280;62197;51.632;13.700;2023-03-05T02:15:06;100061.19;;;1.56;83.18
73860;BME280;62197;51.632;13.700;2023-03-05T02:17:31;100063.31;;;1.61;82.57
73860;BME280;62197;51.632;13.700;2023-03-05T02:20:05;100066.34;;;1.51;83.18
73860;BME280;62197;51.632;13.700;2023-03-05T02:22:31;100060.34;;;1.56;82.83
73860;BME280;62197;51.632;13.700;2023-03-05T02:24:57;100053.59;;;1.52;83.03
73860;BME280;62197;51.632;13.700;2023-03-05T02:27:27;100049.00;;;1.52;82.17
73860;BME280;62197;51.632;13.700;2023-03-05T02:29:59;100056.63;;;1.42;81.97
73860;BME280;62197;51.632;13.700;2023-03-05T02:32:24;100064.03;;;1.48;81.37
73860;BME280;62197;51.632;13.700;2023-03-05T02:34:50;100061.50;;;1.47;82.07
73860;BME280;62197;51.632;13.700;2023-03-05T02:37:15;100045.13;;;1.40;82.30
73860;BME280;62197;51.632;13.700;2023-03-05T02:39:41;100043.81;;;1.36;80.62
73860;BME280;62197;51.632;13.700;2023-03-05T02:42:06;100043.03;;;1.42;80.67
73860;BME280;62197;51.632;13.700;2023-03-05T02:44:32;100045.13;;;1.40;80.40
73860;BME280;62197;51.632;13.700;2023-03-05T02:46:57;100036.31;;;1.38;80.63
73860;BME280;62197;51.632;13.700;2023-03-05T02:49:23;100034.88;;;1.21;81.44
73860;BME280;62197;51.632;13.700;2023-03-05T02:51:49;100034.22;;;1.19;81.54
73860;BME280;62197;51.632;13.700;2023-03-05T02:54:14;100038.59;;;1.20;81.05
73860;BME280;62197;51.632;13.700;2023-03-05T02:56:39;100034.97;;;1.28;80.89
73860;BME280;62197;51.632;13.700;2023-03-05T02:59:05;100046.09;;;1.18;82.03
73860;BME280;62197;51.632;13.700;2023-03-05T03:01:31;100032.34;;;1.20;81.39
73860;BME280;62197;51.632;13.700;2023-03-05T03:03:56;100035.09;;;1.05;82.19
73860;BME280;62197;51.632;13.700;2023-03-05T03:06:21;100046.16;;;1.04;81.72
73860;BME280;62197;51.632;13.700;2023-03-05T03:08:47;100043.59;;;1.17;81.42
73860;BME280;62197;51.632;13.700;2023-03-05T03:11:12;100042.69;;;1.10;81.04
73860;BME280;62197;51.632;13.700;2023-03-05T03:13:38;100042.22;;;1.06;81.26
73860;BME280;62197;51.632;13.700;2023-03-05T03:16:06;100045.75;;;1.07;82.20
73860;BME280;62197;51.632;13.700;2023-03-05T03:18:32;100039.13;;;1.09;81.19
73860;BME280;62197;51.632;13.700;2023-03-05T03:20:57;100046.81;;;1.06;81.52
73860;BME280;62197;51.632;13.700;2023-03-05T03:23:23;100038.09;;;1.10;80.92
73860;BME280;62197;51.632;13.700;2023-03-05T03:25:48;100028.75;;;0.98;81.11
73860;BME280;62197;51.632;13.700;2023-03-05T03:28:14;100025.22;;;0.83;81.56
73860;BME280;62197;51.632;13.700;2023-03-05T03:30:39;100025.38;;;0.96;81.48
73860;BME280;62197;51.632;13.700;2023-03-05T03:33:04;100042.03;;;0.93;80.98
73860;BME280;62197;51.632;13.700;2023-03-05T03:35:30;100018.25;;;0.95;80.88
73860;BME280;62197;51.632;13.700;2023-03-05T03:37:55;100023.97;;;1.00;80.85
73860;BME280;62197;51.632;13.700;2023-03-05T03:40:20;100023.69;;;0.95;80.46
73860;BME280;62197;51.632;13.700;2023-03-05T03:42:46;100010.69;;;0.90;80.73
73860;BME280;62197;51.632;13.700;2023-03-05T03:45:11;100008.44;;;0.94;80.40
73860;BME280;62197;51.632;13.700;2023-03-05T03:47:37;100006.66;;;0.86;81.22
73860;BME280;62197;51.632;13.700;2023-03-05T03:50:03;100010.38;;;1.00;80.64
73860;BME280;62197;51.632;13.700;2023-03-05T03:52:28;100006.78;;;0.78;80.05
73860;BME280;62197;51.632;13.700;2023-03-05T03:54:53;100007.78;;;0.92;81.15
73860;BME280;62197;51.632;13.700;2023-03-05T03:57:25;100011.41;;;0.99;80.70
73860;BME280;62197;51.632;13.700;2023-03-05T03:59:51;100012.44;;;0.98;80.46
73860;BME280;62197;51.632;13.700;2023-03-05T04:02:16;100007.38;;;0.95;81.87
73860;BME280;62197;51.632;13.700;2023-03-05T04:04:42;100003.38;;;0.91;82.05
73860;BME280;62197;51.632;13.700;2023-03-05T04:07:07;99996.59;;;1.02;81.67
73860;BME280;62197;51.632;13.700;2023-03-05T04:09:32;99996.50;;;0.95;81.62
73860;BME280;62197;51.632;13.700;2023-03-05T04:11:58;100002.78;;;0.96;82.88
73860;BME280;62197;51.632;13.700;2023-03-05T04:14:23;99994.84;;;0.94;82.37
73860;BME280;62197;51.632;13.700;2023-03-05T04:16:50;99985.66;;;0.95;82.26
73860;BME280;62197;51.632;13.700;2023-03-05T04:19:16;99957.25;;;0.76;82.90
73860;BME280;62197;51.632;13.700;2023-03-05T04:21:41;99985.66;;;0.95;82.57
73860;BME280;62197;51.632;13.700;2023-03-05T04:24:06;99981.53;;;0.99;82.18
73860;BME280;62197;51.632;13.700;2023-03-05T04:26:32;99980.69;;;0.99;82.34
73860;BME280;62197;51.632;13.700;2023-03-05T04:28:58;99971.50;;;1.00;82.56
73860;BME280;62197;51.632;13.700;2023-03-05T04:31:23;99974.41;;;0.98;82.99
73860;BME280;62197;51.632;13.700;2023-03-05T04:33:48;99965.63;;;0.96;83.73
73860;BME280;62197;51.632;13.700;2023-03-05T04:36:14;99951.06;;;1.04;83.17
73860;BME280;62197;51.632;13.700;2023-03-05T04:38:39;99957.25;;;0.98;82.61
73860;BME280;62197;51.632;13.700;2023-03-05T04:41:04;99948.25;;;0.97;82.99
73860;BME280;62197;51.632;13.700;2023-03-05T04:43:30;99954.84;;;1.03;82.95
73860;BME280;62197;51.632;13.700;2023-03-05T04:45:55;99948.16;;;1.05;82.73
73860;BME280;62197;51.632;13.700;2023-03-05T04:48:20;99963.22;;;1.08;82.71
73860;BME280;62197;51.632;13.700;2023-03-05T04:50:46;99958.66;;;1.08;83.47
73860;BME280;62197;51.632;13.700;2023-03-05T04:53:11;99948.75;;;1.01;83.20
73860;BME280;62197;51.632;13.700;2023-03-05T04:55:36;99955.84;;;1.02;83.99
73860;BME280;62197;51.632;13.700;2023-03-05T04:58:02;99961.09;;;1.03;84.11
73860;BME280;62197;51.632;13.700;2023-03-05T05:00:27;99948.00;;;0.92;84.75
73860;BME280;62197;51.632;13.700;2023-03-05T05:02:53;99945.56;;;0.97;83.98
73860;BME280;62197;51.632;13.700;2023-03-05T05:05:21;99950.72;;;0.92;84.51
73860;BME280;62197;51.632;13.700;2023-03-05T05:07:46;99947.38;;;0.90;84.57
73860;BME280;62197;51.632;13.700;2023-03-05T05:10:13;99951.91;;;0.83;84.83
73860;BME280;62197;51.632;13.700;2023-03-05T05:12:39;99936.50;;;0.90;84.81
73860;BME280;62197;51.632;13.700;2023-03-05T05:15:06;99944.34;;;1.00;85.20
73860;BME280;62197;51.632;13.700;2023-03-05T05:17:32;99948.53;;;1.02;85.60
73860;BME280;62197;51.632;13.700;2023-03-05T05:19:59;99938.06;;;0.99;86.04
73860;BME280;62197;51.632;13.700;2023-03-05T05:22:25;99943.56;;;1.06;87.52
73860;BME280;62197;51.632;13.700;2023-03-05T05:24:51;99945.38;;;0.99;87.69
73860;BME280;62197;51.632;13.700;2023-03-05T05:27:16;99946.72;;;0.88;88.95
73860;BME280;62197;51.632;13.700;2023-03-05T05:29:41;99951.19;;;0.96;90.47
73860;BME280;62197;51.632;13.700;2023-03-05T05:32:07;99941.81;;;0.98;90.99
73860;BME280;62197;51.632;13.700;2023-03-05T05:34:32;99948.53;;;1.02;91.21
73860;BME280;62197;51.632;13.700;2023-03-05T05:36:57;99949.19;;;0.83;92.25
73860;BME280;62197;51.632;13.700;2023-03-05T05:39:23;99954.22;;;0.86;92.78
73860;BME280;62197;51.632;13.700;2023-03-05T05:41:52;99943.75;;;0.83;93.81
73860;BME280;62197;51.632;13.700;2023-03-05T05:44:17;99956.38;;;0.90;93.82
73860;BME280;62197;51.632;13.700;2023-03-05T05:46:43;99932.59;;;0.78;94.69
73860;BME280;62197;51.632;13.700;2023-03-05T05:49:08;99942.19;;;0.95;94.19
73860;BME280;62197;51.632;13.700;2023-03-05T05:51:33;99945.56;;;0.97;94.49
73860;BME280;62197;51.632;13.700;2023-03-05T05:53:59;99941.41;;;1.01;94.03
73860;BME280;62197;51.632;13.700;2023-03-05T05:56:25;99941.81;;;0.98;93.88
73860;BME280;62197;51.632;13.700;2023-03-05T05:58:50;99950.28;;;1.10;94.10
73860;BME280;62197;51.632;13.700;2023-03-05T06:01:25;99952.22;;;0.95;94.79
73860;BME280;62197;51.632;13.700;2023-03-05T06:03:52;99939.22;;;0.90;94.98
73860;BME280;62197;51.632;13.700;2023-03-05T06:06:19;99942.78;;;0.90;95.19
73860;BME280;62197;51.632;13.700;2023-03-05T06:08:46;99955.97;;;0.93;95.30
73860;BME280;62197;51.632;13.700;2023-03-05T06:11:12;99945.06;;;0.87;95.71
73860;BME280;62197;51.632;13.700;2023-03-05T06:13:37;99944.91;;;0.95;96.02
73860;BME280;62197;51.632;13.700;2023-03-05T06:16:07;99952.22;;;0.95;95.30
73860;BME280;62197;51.632;13.700;2023-03-05T06:18:33;99942.78;;;0.90;95.75
73860;BME280;62197;51.632;13.700;2023-03-05T06:21:18;99956.25;;;0.99;96.04
73860;BME280;62197;51.632;13.700;2023-03-05T06:23:44;99947.31;;;1.05;95.69
73860;BME280;62197;51.632;13.700;2023-03-05T06:26:12;99943.56;;;1.06;96.02
73860;BME280;62197;51.632;13.700;2023-03-05T06:28:38;99960.72;;;1.06;95.97
73860;BME280;62197;51.632;13.700;2023-03-05T06:31:09;99955.66;;;1.03;96.66
73860;BME280;62197;51.632;13.700;2023-03-05T06:33:35;99946.81;;;0.95;97.46
73860;BME280;62197;51.632;13.700;2023-03-05T06:36:05;99940.78;;;0.99;97.91
73860;BME280;62197;51.632;13.700;2023-03-05T06:38:31;99954.88;;;1.09;97.62
73860;BME280;62197;51.632;13.700;2023-03-05T06:41:00;99957.78;;;1.08;98.06
73860;BME280;62197;51.632;13.700;2023-03-05T06:43:26;99956.19;;;1.13;98.25
73860;BME280;62197;51.632;13.700;2023-03-05T06:46:01;99961.16;;;1.10;98.92
73860;BME280;62197;51.632;13.700;2023-03-05T06:48:26;99950.16;;;1.18;99.04
73860;BME280;62197;51.632;13.700;2023-03-05T06:50:52;99958.03;;;1.13;99.80
73860;BME280;62197;51.632;13.700;2023-03-05T06:53:17;99955.44;;;1.05;100.00
73860;BME280;62197;51.632;13.700;2023-03-05T06:55:42;99958.66;;;1.08;100.00
73860;BME280;62197;51.632;13.700;2023-03-05T06:58:08;99958.13;;;0.98;100.00
73860;BME280;62197;51.632;13.700;2023-03-05T07:00:33;99956.41;;;0.97;100.00
73860;BME280;62197;51.632;13.700;2023-03-05T07:02:59;99953.66;;;0.76;100.00
73860;BME280;62197;51.632;13.700;2023-03-05T07:05:24;99951.84;;;0.98;100.00
73860;BME280;62197;51.632;13.700;2023-03-05T07:07:49;99956.56;;;1.31;100.00
73860;BME280;62197;51.632;13.700;2023-03-05T07:10:15;99967.78;;;1.22;100.00
73860;BME280;62197;51.632;13.700;2023-03-05T07:12:40;99953.53;;;1.20;100.00
73860;BME280;62197;51.632;13.700;2023-03-05T07:15:06;99952.78;;;1.53;100.00
73860;BME280;62197;51.632;13.700;2023-03-05T07:17:32;99959.78;;;1.90;100.00
73860;BME280;62197;51.632;13.700;2023-03-05T07:19:57;99951.91;;;1.25;100.00
73860;BME280;62197;51.632;13.700;2023-03-05T07:22:22;99946.94;;;2.05;100.00
73860;BME280;62197;51.632;13.700;2023-03-05T07:24:48;99952.66;;;2.23;100.00
73860;BME280;62197;51.632;13.700;2023-03-05T07:27:13;99947.41;;;1.60;100.00
73860;BME280;62197;51.632;13.700;2023-03-05T07:29:38;99950.91;;;2.43;100.00
73860;BME280;62197;51.632;13.700;2023-03-05T07:32:04;99941.56;;;3.85;100.00
73860;BME280;62197;51.632;13.700;2023-03-05T07:34:29;99944.91;;;2.20;100.00
73860;BME280;62197;51.632;13.700;2023-03-05T07:36:55;99939.91;;;1.62;100.00
73860;BME280;62197;51.632;13.700;2023-03-05T07:39:20;99947.56;;;1.79;100.00
73860;BME280;62197;51.632;13.700;2023-03-05T07:41:46;99941.22;;;2.34;100.00
73860;BME280;62197;51.632;13.700;2023-03-05T07:44:13;99938.69;;;1.64;100.00
73860;BME280;62197;51.632;13.700;2023-03-05T07:46:39;99943.34;;;2.05;100.00
73860;BME280;62197;51.632;13.700;2023-03-05T07:49:04;99933.75;;;2.09;100.00
73860;BME280;62197;51.632;13.700;2023-03-05T07:51:30;99943.66;;;3.43;100.00
73860;BME280;62197;51.632;13.700;2023-03-05T07:53:57;99925.53;;;1.74;100.00
73860;BME280;62197;51.632;13.700;2023-03-05T07:56:30;99940.53;;;2.66;100.00
73860;BME280;62197;51.632;13.700;2023-03-05T07:59:09;99938.06;;;1.41;100.00
73860;BME280;62197;51.632;13.700;2023-03-05T08:01:35;99957.66;;;0.59;100.00
73860;BME280;62197;51.632;13.700;2023-03-05T08:04:01;99965.00;;;0.15;100.00
73860;BME280;62197;51.632;13.700;2023-03-05T08:06:27;99956.69;;;0.02;100.00
73860;BME280;62197;51.632;13.700;2023-03-05T08:08:53;99958.97;;;-0.25;100.00
73860;BME280;62197;51.632;13.700;2023-03-05T08:11:18;99951.28;;;-0.36;100.00
73860;BME280;62197;51.632;13.700;2023-03-05T08:13:44;99945.47;;;-0.47;100.00
73860;BME280;62197;51.632;13.700;2023-03-05T08:16:15;99954.59;;;-0.63;100.00
73860;BME280;62197;51.632;13.700;2023-03-05T08:18:41;99948.66;;;-0.44;100.00
73860;BME280;62197;51.632;13.700;2023-03-05T08:21:15;99956.28;;;0.05;100.00
73860;BME280;62197;51.632;13.700;2023-03-05T08:23:40;99937.47;;;-0.12;100.00
73860;BME280;62197;51.632;13.700;2023-03-05T08:26:16;99937.59;;;-0.20;100.00
73860;BME280;62197;51.632;13.700;2023-03-05T08:28:42;99935.53;;;-0.18;100.00
73860;BME280;62197;51.632;13.700;2023-03-05T08:31:12;99922.72;;;-0.09;100.00
73860;BME280;62197;51.632;13.700;2023-03-05T08:33:38;99927.28;;;-0.10;100.00
73860;BME280;62197;51.632;13.700;2023-03-05T08:36:04;99920.09;;;-0.03;100.00
73860;BME280;62197;51.632;13.700;2023-03-05T08:38:30;99923.25;;;0.16;100.00
73860;BME280;62197;51.632;13.700;2023-03-05T08:40:55;99926.81;;;0.16;100.00
73860;BME280;62197;51.632;13.700;2023-03-05T08:43:20;99917.31;;;0.06;100.00
73860;BME280;62197;51.632;13.700;2023-03-05T08:45:46;99926.09;;;0.08;100.00
73860;BME280;62197;51.632;13.700;2023-03-05T08:48:13;99927.00;;;-0.15;100.00
73860;BME280;62197;51.632;13.700;2023-03-05T08:50:39;99927.94;;;-0.08;100.00
73860;BME280;62197;51.632;13.700;2023-03-05T08:53:04;99933.56;;;-0.24;100.00
73860;BME280;62197;51.632;13.700;2023-03-05T08:55:30;99916.28;;;-0.08;100.00
73860;BME280;62197;51.632;13.700;2023-03-05T08:57:55;99909.81;;;0.08;100.00
73860;BME280;62197;51.632;13.700;2023-03-05T09:00:20;99904.66;;;0.63;100.00
73860;BME280;62197;51.632;13.700;2023-03-05T09:02:46;99911.00;;;0.70;100.00
73860;BME280;62197;51.632;13.700;2023-03-05T09:05:11;99902.03;;;0.55;100.00
73860;BME280;62197;51.632;13.700;2023-03-05T09:07:37;99902.81;;;0.49;100.00
73860;BME280;62197;51.632;13.700;2023-03-05T09:10:04;99918.44;;;0.61;100.00
73860;BME280;62197;51.632;13.700;2023-03-05T09:12:29;99906.38;;;0.49;100.00
73860;BME280;62197;51.632;13.700;2023-03-05T09:14:55;99925.97;;;0.30;100.00
73860;BME280;62197;51.632;13.700;2023-03-05T09:17:21;99903.00;;;0.12;100.00
73860;BME280;62197;51.632;13.700;2023-03-05T09:19:47;99910.91;;;-0.02;100.00
73860;BME280;62197;51.632;13.700;2023-03-05T09:22:12;99909.44;;;-0.19;100.00
73860;BME280;62197;51.632;13.700;2023-03-05T09:24:37;99906.06;;;-0.21;100.00
73860;BME280;62197;51.632;13.700;2023-03-05T09:27:03;99896.69;;;-0.04;100.00
73860;BME280;62197;51.632;13.700;2023-03-05T09:29:28;99888.22;;;0.50;100.00
73860;BME280;62197;51.632;13.700;2023-03-05T09:31:55;99888.03;;;0.72;100.00
73860;BME280;62197;51.632;13.700;2023-03-05T09:34:20;99895.53;;;0.70;100.00
73860;BME280;62197;51.632;13.700;2023-03-05T09:36:46;99857.94;;;0.88;100.00
73860;BME280;62197;51.632;13.700;2023-03-05T09:39:12;99881.06;;;0.84;100.00
73860;BME280;62197;51.632;13.700;2023-03-05T09:42:13;99887.03;;;0.73;100.00
73860;BME280;62197;51.632;13.700;2023-03-05T09:47:51;99873.31;;;1.03;100.00
73860;BME280;62197;51.632;13.700;2023-03-05T09:52:55;99870.13;;;1.75;100.00
73860;BME280;62197;51.632;13.700;2023-03-05T09:57:56;99869.56;;;1.52;100.00
73860;BME280;62197;51.632;13.700;2023-03-05T10:03:15;99880.72;;;2.39;97.74
73860;BME280;62197;51.632;13.700;2023-03-05T10:05:47;99881.75;;;2.38;94.03
73860;BME280;62197;51.632;13.700;2023-03-05T10:08:19;99854.66;;;2.97;97.18
73860;BME280;62197;51.632;13.700;2023-03-05T10:10:49;99863.03;;;2.82;90.90
73860;BME280;62197;51.632;13.700;2023-03-05T10:13:22;99860.69;;;2.66;92.49
73860;BME280;62197;51.632;13.700;2023-03-05T10:15:58;99856.53;;;2.23;94.12
73860;BME280;62197;51.632;13.700;2023-03-05T10:18:38;99857.72;;;2.54;92.63
73860;BME280;62197;51.632;13.700;2023-03-05T10:21:12;99872.28;;;2.94;91.83
73860;BME280;62197;51.632;13.700;2023-03-05T10:24:02;99855.91;;;2.81;93.32
73860;BME280;62197;51.632;13.700;2023-03-05T10:27:07;99855.94;;;3.01;92.47
73860;BME280;62197;51.632;13.700;2023-03-05T10:32:14;99831.41;;;3.20;90.45
73860;BME280;62197;51.632;13.700;2023-03-05T10:34:53;99855.13;;;3.39;89.27
73860;BME280;62197;51.632;13.700;2023-03-05T10:40:20;99839.56;;;3.01;91.23
73860;BME280;62197;51.632;13.700;2023-03-05T10:43:13;99839.38;;;3.09;91.35
73860;BME280;62197;51.632;13.700;2023-03-05T10:45:46;99825.72;;;3.02;90.09
73860;BME280;62197;51.632;13.700;2023-03-05T10:51:18;99819.88;;;3.05;90.61
73860;BME280;62197;51.632;13.700;2023-03-05T10:56:21;99812.72;;;2.78;91.35
73860;BME280;62197;51.632;13.700;2023-03-05T10:58:47;99803.09;;;2.82;94.16
73860;BME280;62197;51.632;13.700;2023-03-05T11:04:02;99811.06;;;3.03;90.35
73860;BME280;62197;51.632;13.700;2023-03-05T11:09:19;99811.06;;;3.16;91.08
73860;BME280;62197;51.632;13.700;2023-03-05T11:12:09;99808.75;;;2.74;90.90
73860;BME280;62197;51.632;13.700;2023-03-05T11:14:36;99801.63;;;2.99;92.58
73860;BME280;62197;51.632;13.700;2023-03-05T11:17:23;99806.66;;;2.89;92.28
73860;BME280;62197;51.632;13.700;2023-03-05T11:19:48;99809.38;;;3.02;89.86
73860;BME280;62197;51.632;13.700;2023-03-05T11:22:19;99796.38;;;2.91;89.92
73860;BME280;62197;51.632;13.700;2023-03-05T11:25:13;99797.03;;;2.80;90.88
73860;BME280;62197;51.632;13.700;2023-03-05T11:27:51;99796.38;;;2.65;90.36
73860;BME280;62197;51.632;13.700;2023-03-05T11:30:35;99792.91;;;2.24;91.28
73860;BME280;62197;51.632;13.700;2023-03-05T11:33:18;99795.66;;;2.37;91.89
73860;BME280;62197;51.632;13.700;2023-03-05T11:35:45;99784.38;;;2.40;92.24
73860;BME280;62197;51.632;13.700;2023-03-05T11:38:18;99792.34;;;2.41;92.05
73860;BME280;62197;51.632;13.700;2023-03-05T11:40:44;99790.00;;;2.38;91.69
73860;BME280;62197;51.632;13.700;2023-03-05T11:43:16;99791.09;;;2.44;91.39
73860;BME280;62197;51.632;13.700;2023-03-05T11:45:43;99786.69;;;2.43;92.20
73860;BME280;62197;51.632;13.700;2023-03-05T11:48:19;99783.94;;;2.30;90.42
73860;BME280;62197;51.632;13.700;2023-03-05T11:50:52;99769.88;;;2.33;90.42
73860;BME280;62197;51.632;13.700;2023-03-05T11:53:26;99786.03;;;2.41;89.20
73860;BME280;62197;51.632;13.700;2023-03-05T11:55:58;99787.94;;;2.47;88.36
73860;BME280;62197;51.632;13.700;2023-03-05T11:58:41;99777.47;;;2.44;88.54
73860;BME280;62197;51.632;13.700;2023-03-05T12:01:19;99768.44;;;2.30;89.89
73860;BME280;62197;51.632;13.700;2023-03-05T12:03:45;99773.22;;;2.22;92.22
73860;BME280;62197;51.632;13.700;2023-03-05T12:09:17;99772.88;;;2.51;95.07
73860;BME280;62197;51.632;13.700;2023-03-05T12:11:47;99767.59;;;2.30;96.34
73860;BME280;62197;51.632;13.700;2023-03-05T12:14:22;99766.97;;;2.41;95.49
73860;BME280;62197;51.632;13.700;2023-03-05T12:16:57;99734.72;;;2.38;96.22
73860;BME280;62197;51.632;13.700;2023-03-05T12:20:06;99753.06;;;2.10;98.88
73860;BME280;62197;51.632;13.700;2023-03-05T12:22:37;99751.69;;;2.33;99.01
73860;BME280;62197;51.632;13.700;2023-03-05T12:28:16;99733.69;;;2.39;100.00
73860;BME280;62197;51.632;13.700;2023-03-05T12:31:38;99752.28;;;2.22;100.00
73860;BME280;62197;51.632;13.700;2023-03-05T12:37:01;99740.97;;;2.19;100.00
73860;BME280;62197;51.632;13.700;2023-03-05T12:52:52;99707.50;;;2.44;100.00
73860;BME280;62197;51.632;13.700;2023-03-05T12:55:21;99697.47;;;2.51;100.00
73860;BME280;62197;51.632;13.700;2023-03-05T12:57:52;99695.34;;;2.47;100.00
73860;BME280;62197;51.632;13.700;2023-03-05T13:00:24;99698.72;;;2.55;100.00
73860;BME280;62197;51.632;13.700;2023-03-05T13:02:55;99701.25;;;2.57;100.00
73860;BME280;62197;51.632;13.700;2023-03-05T13:05:35;99699.13;;;2.72;100.00
73860;BME280;62197;51.632;13.700;2023-03-05T13:08:14;99696.22;;;2.80;100.00
73860;BME280;62197;51.632;13.700;2023-03-05T13:10:42;99697.44;;;2.58;100.00
73860;BME280;62197;51.632;13.700;2023-03-05T13:13:14;99681.94;;;2.52;100.00
73860;BME280;62197;51.632;13.700;2023-03-05T13:15:44;99681.13;;;2.84;100.00
73860;BME280;62197;51.632;13.700;2023-03-05T13:18:21;99674.41;;;2.60;100.00
73860;BME280;62197;51.632;13.700;2023-03-05T13:21:12;99676.94;;;2.49;100.00
73860;BME280;62197;51.632;13.700;2023-03-05T13:23:47;99684.25;;;2.81;100.00
73860;BME280;62197;51.632;13.700;2023-03-05T13:26:16;99690.94;;;2.98;100.00
73860;BME280;62197;51.632;13.700;2023-03-05T13:28:43;99680.69;;;2.94;100.00
73860;BME280;62197;51.632;13.700;2023-03-05T13:31:17;99679.00;;;2.80;100.00
73860;BME280;62197;51.632;13.700;2023-03-05T13:33:56;99675.66;;;2.45;100.00
73860;BME280;62197;51.632;13.700;2023-03-05T13:36:25;99680.50;;;2.49;100.00
73860;BME280;62197;51.632;13.700;2023-03-05T13:38:51;99668.13;;;2.47;100.00
73860;BME280;62197;51.632;13.700;2023-03-05T13:41:21;99670.84;;;2.80;100.00
73860;BME280;62197;51.632;13.700;2023-03-05T13:43:52;99667.63;;;3.22;100.00
73860;BME280;62197;51.632;13.700;2023-03-05T13:46:33;99662.88;;;3.55;100.00
73860;BME280;62197;51.632;13.700;2023-03-05T13:49:22;99657.19;;;3.70;100.00